createdAt,value
2023-05-24T00:01:45.843Z,99532.88
2023-05-24T00:04:20.253Z,99523.66
2023-05-24T00:06:49.004Z,99525.56
2023-05-24T00:09:17.832Z,99533.81
2023-05-24T00:11:56.413Z,99528.88
2023-05-24T00:14:26.086Z,99527.56
2023-05-24T00:16:55.146Z,99527.09
2023-05-24T00:19:26.006Z,99529.28
2023-05-24T00:21:55.872Z,99531.22
2023-05-24T00:24:27.792Z,99526.16
2023-05-24T00:26:56.262Z,99531.00
2023-05-24T00:29:32.292Z,99532.34
2023-05-24T00:32:02.306Z,99527.19
2023-05-24T00:34:34.116Z,99525.00
2023-05-24T00:37:03.149Z,99529.00
2023-05-24T00:39:31.928Z,99520.94
2023-05-24T00:42:01.657Z,99526.38
2023-05-24T00:44:30.938Z,99520.34
2023-05-24T00:47:00.160Z,99518.19
2023-05-24T00:49:29.517Z,99521.22
2023-05-24T00:52:01.521Z,99523.41
2023-05-24T00:54:30.825Z,99524.84
2023-05-24T00:57:00.001Z,99526.19
2023-05-24T00:59:29.212Z,99527.50
2023-05-24T01:01:58.376Z,99525.19
2023-05-24T01:04:28.459Z,99521.25
2023-05-24T01:07:11.557Z,99523.66
2023-05-24T01:09:54.457Z,99517.88
2023-05-24T01:12:33.914Z,99521.13
2023-05-24T01:15:19.692Z,99514.28
2023-05-24T01:18:01.925Z,99513.78
2023-05-24T01:20:35.412Z,99517.38
2023-05-24T01:23:18.129Z,99507.94
2023-05-24T01:26:17.928Z,99510.84
2023-05-24T01:28:49.992Z,99517.13
2023-05-24T01:31:20.040Z,99518.06
2023-05-24T01:33:53.225Z,99519.03
2023-05-24T01:36:25.209Z,99516.16
2023-05-24T01:38:55.344Z,99516.88
2023-05-24T01:41:38.496Z,99518.16
2023-05-24T01:44:17.960Z,99518.88
2023-05-24T01:46:55.315Z,99511.53
2023-05-24T01:49:30.522Z,99512.94
2023-05-24T01:52:04.468Z,99513.31
2023-05-24T01:54:39.932Z,99516.06
2023-05-24T01:57:11.963Z,99517.13
2023-05-24T01:59:45.230Z,99522.31
2023-05-24T02:02:19.696Z,99520.16
2023-05-24T02:04:48.780Z,99518.69
2023-05-24T02:07:19.725Z,99525.88
2023-05-24T02:09:49.192Z,99531.41
2023-05-24T02:12:19.168Z,99525.97
2023-05-24T02:14:51.567Z,99522.81
2023-05-24T02:17:21.017Z,99527.38
2023-05-24T02:19:50.943Z,99527.50
2023-05-24T02:22:22.820Z,99527.50
2023-05-24T02:24:56.025Z,99527.03
2023-05-24T02:27:25.842Z,99532.81
2023-05-24T02:29:57.929Z,99526.81
2023-05-24T02:32:27.072Z,99528.28
2023-05-24T02:34:58.897Z,99528.13
2023-05-24T02:37:28.076Z,99533.09
2023-05-24T02:39:57.976Z,99534.25
2023-05-24T02:42:27.535Z,99532.31
2023-05-24T02:44:58.607Z,99536.16
2023-05-24T02:47:28.840Z,99535.94
2023-05-24T02:49:59.829Z,99536.91
2023-05-24T02:52:29.248Z,99530.31
2023-05-24T02:54:58.484Z,99534.34
2023-05-24T02:57:34.309Z,99528.88
2023-05-24T03:00:06.096Z,99530.75
2023-05-24T03:02:39.138Z,99536.91
2023-05-24T03:05:09.785Z,99536.47
2023-05-24T03:07:39.973Z,99533.97
2023-05-24T03:10:11.333Z,99533.38
2023-05-24T03:12:41.509Z,99545.00
2023-05-24T03:15:14.616Z,99544.50
2023-05-24T03:17:46.318Z,99549.22
2023-05-24T03:20:16.245Z,99547.03
2023-05-24T03:22:46.560Z,99549.22
2023-05-24T03:25:16.142Z,99559.00
2023-05-24T03:27:45.804Z,99545.81
2023-05-24T03:30:16.987Z,99559.13
2023-05-24T03:32:55.239Z,99566.81
2023-05-24T03:35:25.246Z,99562.91
2023-05-24T03:37:57.440Z,99565.75
2023-05-24T03:40:33.429Z,99561.22
2023-05-24T03:43:12.115Z,99565.75
2023-05-24T03:45:54.088Z,99572.81
2023-05-24T03:48:23.517Z,99570.16
2023-05-24T03:50:54.401Z,99567.41
2023-05-24T03:53:24.808Z,99575.22
2023-05-24T03:55:54.931Z,99579.66
2023-05-24T03:58:24.654Z,99572.66
2023-05-24T04:00:59.624Z,99579.28
2023-05-24T04:03:30.270Z,99578.91
2023-05-24T04:05:59.539Z,99581.38
2023-05-24T04:08:29.330Z,99577.31
2023-05-24T04:11:08.706Z,99574.13
2023-05-24T04:13:41.944Z,99581.97
2023-05-24T04:16:18.858Z,99572.50
2023-05-24T04:18:51.341Z,99583.84
2023-05-24T04:21:23.164Z,99590.22
2023-05-24T04:23:52.612Z,99585.53
2023-05-24T04:26:23.075Z,99594.59
2023-05-24T04:28:52.784Z,99590.50
2023-05-24T04:31:25.172Z,99601.03
2023-05-24T04:33:55.760Z,99604.31
2023-05-24T04:36:29.150Z,99592.78
2023-05-24T04:39:03.263Z,99593.84
2023-05-24T04:41:36.370Z,99604.34
2023-05-24T04:44:06.691Z,99613.13
2023-05-24T04:46:37.904Z,99610.56
2023-05-24T04:49:08.814Z,99615.25
2023-05-24T04:51:38.966Z,99610.97
2023-05-24T04:54:09.775Z,99607.78
2023-05-24T04:56:40.415Z,99621.25
2023-05-24T04:59:13.868Z,99612.44
2023-05-24T05:01:45.232Z,99613.88
2023-05-24T05:04:15.487Z,99613.47
2023-05-24T05:06:48.584Z,99619.00
2023-05-24T05:09:19.669Z,99622.81
2023-05-24T05:11:49.557Z,99626.09
2023-05-24T05:14:19.373Z,99626.44
2023-05-24T05:16:53.647Z,99624.22
2023-05-24T05:19:23.329Z,99633.03
2023-05-24T05:21:53.380Z,99636.28
2023-05-24T05:27:29.180Z,99642.03
2023-05-24T05:30:00.480Z,99633.69
2023-05-24T05:33:10.591Z,99646.81
2023-05-24T05:35:45.947Z,99650.44
2023-05-24T05:38:15.750Z,99647.66
2023-05-24T05:40:45.675Z,99640.91
2023-05-24T05:43:18.365Z,99652.13
2023-05-24T05:45:53.165Z,99658.28
2023-05-24T05:48:28.480Z,99659.06
2023-05-24T05:50:57.991Z,99658.28
2023-05-24T05:53:27.656Z,99654.59
2023-05-24T05:56:02.916Z,99654.78
2023-05-24T05:58:35.642Z,99654.72
2023-05-24T06:01:06.316Z,99656.09
2023-05-24T06:03:47.866Z,99668.13
2023-05-24T06:06:17.877Z,99666.25
2023-05-24T06:08:47.829Z,99667.97
2023-05-24T06:11:17.166Z,99664.88
2023-05-24T06:13:46.611Z,99666.53
2023-05-24T06:16:16.923Z,99674.66
2023-05-24T06:19:01.211Z,99679.56
2023-05-24T06:21:36.984Z,99674.94
2023-05-24T06:24:10.308Z,99679.69
2023-05-24T06:26:41.831Z,99681.56
2023-05-24T06:29:12.351Z,99681.63
2023-05-24T06:31:50.561Z,99686.53
2023-05-24T06:34:22.742Z,99693.22
2023-05-24T06:36:55.810Z,99693.56
2023-05-24T06:39:26.289Z,99697.25
2023-05-24T06:41:56.985Z,99704.75
2023-05-24T06:44:36.331Z,99712.69
2023-05-24T06:47:07.766Z,99714.56
2023-05-24T06:49:43.050Z,99714.59
2023-05-24T06:52:14.173Z,99729.31
2023-05-24T06:54:44.527Z,99727.25
2023-05-24T06:57:14.619Z,99723.16
2023-05-24T06:59:43.938Z,99724.34
2023-05-24T07:02:13.474Z,99735.44
2023-05-24T07:04:49.168Z,99730.22
2023-05-24T07:07:19.299Z,99734.69
2023-05-24T07:09:48.853Z,99734.69
2023-05-24T07:12:18.826Z,99744.25
2023-05-24T07:14:48.481Z,99751.94
2023-05-24T07:17:17.514Z,99749.41
2023-05-24T07:19:48.624Z,99747.78
2023-05-24T07:22:18.131Z,99759.75
2023-05-24T07:24:50.378Z,99762.84
2023-05-24T07:27:19.584Z,99768.66
2023-05-24T07:29:50.358Z,99774.00
2023-05-24T07:32:20.879Z,99776.09
2023-05-24T07:34:53.124Z,99776.94
2023-05-24T07:37:24.250Z,99775.53
2023-05-24T07:39:55.401Z,99779.81
2023-05-24T07:42:24.454Z,99784.06
2023-05-24T07:44:54.682Z,99773.78
2023-05-24T07:47:25.440Z,99783.19
2023-05-24T07:49:59.686Z,99784.06
2023-05-24T07:52:30.260Z,99787.31
2023-05-24T07:55:00.348Z,99792.16
2023-05-24T07:57:30.045Z,99792.34
2023-05-24T08:00:07.359Z,99800.88
2023-05-24T08:02:43.162Z,99812.81
2023-05-24T08:05:14.902Z,99812.28
2023-05-24T08:07:44.643Z,99814.38
2023-05-24T08:10:17.254Z,99810.03
2023-05-24T08:12:47.206Z,99819.72
2023-05-24T08:15:19.873Z,99815.50
2023-05-24T08:17:54.633Z,99823.53
2023-05-24T08:20:28.216Z,99828.63
2023-05-24T08:23:06.051Z,99823.59
2023-05-24T08:25:39.156Z,99835.97
2023-05-24T08:28:09.050Z,99834.31
2023-05-24T08:30:41.394Z,99830.34
2023-05-24T08:33:12.212Z,99824.72
2023-05-24T08:35:43.495Z,99830.34
2023-05-24T08:38:13.345Z,99833.72
2023-05-24T08:40:43.404Z,99827.69
2023-05-24T08:43:21.087Z,99839.78
2023-05-24T08:45:51.835Z,99845.38
2023-05-24T08:48:22.352Z,99838.66
2023-05-24T08:50:54.243Z,99839.69
2023-05-24T08:53:28.335Z,99848.06
2023-05-24T08:55:59.072Z,99841.84
2023-05-24T08:58:31.140Z,99846.31
2023-05-24T09:01:02.682Z,99843.75
2023-05-24T09:03:35.587Z,99849.34
2023-05-24T09:06:07.066Z,99850.00
2023-05-24T09:08:37.934Z,99852.94
2023-05-24T09:11:09.246Z,99851.25
2023-05-24T09:13:41.472Z,99868.22
2023-05-24T09:16:18.384Z,99873.66
2023-05-24T09:18:53.580Z,99871.28
2023-05-24T09:21:39.268Z,99879.50
2023-05-24T09:24:13.410Z,99869.28
2023-05-24T09:26:44.283Z,99885.31
2023-05-24T09:29:13.881Z,99891.19
2023-05-24T09:31:49.299Z,99885.44
2023-05-24T09:34:28.298Z,99872.69
2023-05-24T09:37:04.262Z,99880.94
2023-05-24T09:39:35.371Z,99878.13
2023-05-24T09:42:05.864Z,99885.31
2023-05-24T09:44:37.919Z,99895.19
2023-05-24T09:47:07.817Z,99891.66
2023-05-24T09:49:39.532Z,99887.06
2023-05-24T09:52:15.257Z,99891.47
2023-05-24T09:54:46.399Z,99894.09
2023-05-24T09:57:20.763Z,99890.31
2023-05-24T09:59:51.149Z,99886.91
2023-05-24T10:02:24.367Z,99890.41
2023-05-24T10:05:01.573Z,99894.31
2023-05-24T10:07:35.571Z,99888.13
2023-05-24T10:10:08.212Z,99889.13
2023-05-24T10:12:44.297Z,99898.88
2023-05-24T10:15:14.543Z,99889.47
2023-05-24T10:17:47.796Z,99883.72
2023-05-24T10:20:20.156Z,99889.31
2023-05-24T10:22:59.364Z,99901.06
2023-05-24T10:25:33.497Z,99901.22
2023-05-24T10:28:10.510Z,99897.84
2023-05-24T10:30:53.053Z,99901.66
2023-05-24T10:33:26.911Z,99894.44
2023-05-24T10:35:58.542Z,99889.06
2023-05-24T10:38:33.076Z,99899.69
2023-05-24T10:41:05.981Z,99898.06
2023-05-24T10:43:38.796Z,99890.19
2023-05-24T10:46:18.999Z,99909.16
2023-05-24T10:49:06.414Z,99911.56
2023-05-24T10:51:47.473Z,99912.91
2023-05-24T10:54:39.865Z,99911.38
2023-05-24T10:57:14.678Z,99917.72
2023-05-24T10:59:47.259Z,99910.22
2023-05-24T11:02:17.001Z,99925.09
2023-05-24T11:04:51.796Z,99915.69
2023-05-24T11:07:34.274Z,99917.88
2023-05-24T11:10:18.712Z,99909.47
2023-05-24T11:12:51.128Z,99910.88
2023-05-24T11:15:32.824Z,99918.16
2023-05-24T11:18:24.296Z,99912.63
2023-05-24T11:20:58.334Z,99909.75
2023-05-24T11:23:39.038Z,99918.00
2023-05-24T11:26:13.810Z,99914.78
2023-05-24T11:28:48.213Z,99919.34
2023-05-24T11:31:20.132Z,99918.50
2023-05-24T11:33:50.232Z,99916.34
2023-05-24T11:36:22.462Z,99914.81
2023-05-24T11:38:53.085Z,99915.81
2023-05-24T11:41:27.380Z,99922.69
2023-05-24T11:44:02.754Z,99914.66
2023-05-24T11:46:36.013Z,99910.63
2023-05-24T11:49:05.812Z,99915.97
2023-05-24T11:51:37.999Z,99910.97
2023-05-24T11:54:08.198Z,99900.84
2023-05-24T11:56:43.180Z,99900.75
2023-05-24T11:59:21.024Z,99900.94
2023-05-24T12:01:52.125Z,99908.72
2023-05-24T12:04:24.515Z,99907.88
2023-05-24T12:06:55.468Z,99904.44
2023-05-24T12:09:26.125Z,99902.34
2023-05-24T12:12:01.167Z,99900.50
2023-05-24T12:14:34.663Z,99895.78
2023-05-24T12:17:07.702Z,99891.16
2023-05-24T12:19:37.671Z,99889.31
2023-05-24T12:22:09.622Z,99879.81
2023-05-24T12:24:42.939Z,99887.97
2023-05-24T12:27:17.062Z,99883.88
2023-05-24T12:29:49.514Z,99886.94
2023-05-24T12:32:19.849Z,99881.81
2023-05-24T12:34:52.088Z,99881.63
2023-05-24T12:37:22.188Z,99885.47
2023-05-24T12:39:54.430Z,99883.88
2023-05-24T12:42:27.948Z,99873.69
2023-05-24T12:44:58.190Z,99883.50
2023-05-24T12:47:32.982Z,99879.06
2023-05-24T12:50:05.405Z,99880.78
2023-05-24T12:52:35.947Z,99874.47
2023-05-24T12:55:11.640Z,99879.50
2023-05-24T12:57:47.558Z,99875.16
2023-05-24T13:00:21.120Z,99871.19
2023-05-24T13:02:53.294Z,99874.91
2023-05-24T13:05:23.484Z,99871.44
2023-05-24T13:07:54.273Z,99870.75
2023-05-24T13:10:26.963Z,99875.13
2023-05-24T13:12:58.874Z,99877.03
2023-05-24T13:15:30.434Z,99869.28
2023-05-24T13:18:03.896Z,99870.50
2023-05-24T13:20:36.970Z,99874.97
2023-05-24T13:23:09.148Z,99876.41
2023-05-24T13:25:39.235Z,99874.63
2023-05-24T13:28:17.235Z,99886.13
2023-05-24T13:30:52.682Z,99878.88
2023-05-24T13:33:24.909Z,99881.47
2023-05-24T13:35:54.538Z,99880.91
2023-05-24T13:38:26.756Z,99884.41
2023-05-24T13:41:08.841Z,99874.50
2023-05-24T13:43:48.942Z,99881.06
2023-05-24T13:46:19.036Z,99885.78
2023-05-24T13:48:51.708Z,99891.66
2023-05-24T13:51:23.011Z,99902.41
2023-05-24T13:53:53.273Z,99923.69
2023-05-24T13:56:24.422Z,99919.13
2023-05-24T13:58:58.543Z,99919.16
2023-05-24T14:01:28.809Z,99932.06
2023-05-24T14:04:00.551Z,99925.41
2023-05-24T14:06:35.504Z,99933.66
2023-05-24T14:09:08.778Z,99929.25
2023-05-24T14:11:38.376Z,99923.38
2023-05-24T14:16:44.488Z,99906.44
2023-05-24T14:19:23.319Z,99913.38
2023-05-24T14:21:53.549Z,99911.00
2023-05-24T14:24:24.366Z,99901.25
2023-05-24T14:26:54.042Z,99904.19
2023-05-24T14:29:24.962Z,99903.63
2023-05-24T14:31:56.235Z,99901.69
2023-05-24T14:34:26.107Z,99910.25
2023-05-24T14:36:56.270Z,99904.84
2023-05-24T14:39:25.171Z,99912.78
2023-05-24T14:41:55.918Z,99905.50
2023-05-24T14:44:28.350Z,99899.19
2023-05-24T14:47:17.460Z,99895.06
2023-05-24T14:50:14.972Z,99907.41
2023-05-24T14:52:54.922Z,99908.81
2023-05-24T14:55:26.267Z,99915.13
2023-05-24T14:57:55.620Z,99930.81
2023-05-24T15:00:41.155Z,99936.69
2023-05-24T15:03:15.066Z,99923.78
2023-05-24T15:06:18.752Z,99925.59
2023-05-24T15:08:52.069Z,99920.34
2023-05-24T15:11:52.005Z,99928.44
2023-05-24T15:14:34.929Z,99944.13
2023-05-24T15:18:45.813Z,99942.28
2023-05-24T15:20:20.237Z,99942.09
2023-05-24T15:22:55.041Z,99936.34
2023-05-24T15:25:32.668Z,99943.28
2023-05-24T15:28:45.417Z,99938.91
2023-05-24T15:31:22.174Z,99952.91
2023-05-24T15:33:55.933Z,99961.22
2023-05-24T15:36:33.863Z,99963.19
2023-05-24T15:39:04.051Z,99962.53
2023-05-24T15:41:40.785Z,99963.94
2023-05-24T15:44:13.613Z,99960.78
2023-05-24T15:47:22.333Z,99963.34
2023-05-24T15:53:11.504Z,99953.31
2023-05-24T15:56:00.394Z,99948.53
2023-05-24T15:58:33.295Z,99949.78
2023-05-24T16:01:11.595Z,99957.44
2023-05-24T16:03:55.675Z,99974.56
2023-05-24T16:06:29.016Z,99985.88
2023-05-24T16:09:03.369Z,99977.47
2023-05-24T16:11:35.489Z,99982.56
2023-05-24T16:14:09.428Z,99988.16
2023-05-24T16:16:52.459Z,99985.22
2023-05-24T16:19:25.226Z,99990.31
2023-05-24T16:21:59.817Z,99988.66
2023-05-24T16:24:51.314Z,99994.22
2023-05-24T16:27:27.380Z,99993.81
2023-05-24T16:29:57.221Z,99999.31
2023-05-24T16:32:32.874Z,99995.41
2023-05-24T16:35:20.694Z,99992.78
2023-05-24T16:37:58.526Z,99981.47
2023-05-24T16:40:42.297Z,99991.16
2023-05-24T16:43:22.152Z,99973.94
2023-05-24T16:46:16.043Z,99981.34
2023-05-24T16:48:46.545Z,99984.41
2023-05-24T16:51:23.128Z,99988.53
2023-05-24T16:53:54.876Z,99985.25
2023-05-24T16:56:33.786Z,100002.09
2023-05-24T16:59:06.514Z,99999.22
2023-05-24T17:01:48.413Z,100008.47
2023-05-24T17:04:18.390Z,100010.97
2023-05-24T17:06:54.902Z,100018.13
2023-05-24T17:09:26.747Z,100004.69
2023-05-24T17:11:56.820Z,100012.16
2023-05-24T17:14:28.701Z,100022.81
2023-05-24T17:17:25.143Z,100016.69
2023-05-24T17:19:55.834Z,100021.56
2023-05-24T17:22:25.460Z,100025.13
2023-05-24T17:25:07.602Z,100020.47
2023-05-24T17:27:42.604Z,100029.88
2023-05-24T17:30:20.079Z,100038.72
2023-05-24T17:32:49.848Z,100036.44
2023-05-24T17:35:19.540Z,100039.63
2023-05-24T17:37:49.211Z,100039.53
2023-05-24T17:40:22.910Z,100046.69
2023-05-24T17:42:58.747Z,100046.69
2023-05-24T17:45:30.366Z,100048.72
2023-05-24T17:48:14.235Z,100045.91
2023-05-24T17:50:48.410Z,100053.72
2023-05-24T17:53:31.614Z,100055.53
2023-05-24T17:56:14.825Z,100058.53
2023-05-24T17:58:52.333Z,100060.63
2023-05-24T18:01:25.156Z,100065.41
2023-05-24T18:04:03.342Z,100070.25
2023-05-24T18:06:42.273Z,100084.09
2023-05-24T18:09:17.956Z,100085.56
2023-05-24T18:11:58.348Z,100085.56
2023-05-24T18:14:36.150Z,100093.41
2023-05-24T18:17:09.661Z,100093.75
2023-05-24T18:19:49.844Z,100106.59
2023-05-24T18:22:20.419Z,100114.06
2023-05-24T18:24:58.718Z,100124.22
2023-05-24T18:27:34.384Z,100130.75
2023-05-24T18:30:04.439Z,100128.81
2023-05-24T18:32:42.061Z,100145.00
2023-05-24T18:35:24.693Z,100143.03
2023-05-24T18:38:04.102Z,100151.94
2023-05-24T18:40:33.824Z,100150.34
2023-05-24T18:43:04.607Z,100155.03
2023-05-24T18:45:35.621Z,100161.47
2023-05-24T18:48:06.636Z,100171.25
2023-05-24T18:50:41.735Z,100180.50
2023-05-24T18:53:37.565Z,100180.34
2023-05-24T18:56:07.569Z,100197.13
2023-05-24T18:58:51.580Z,100199.78
2023-05-24T19:01:20.891Z,100197.09
2023-05-24T19:03:50.730Z,100199.66
2023-05-24T19:06:19.604Z,100210.00
2023-05-24T19:08:49.723Z,100215.63
2023-05-24T19:11:18.787Z,100223.28
2023-05-24T19:13:49.758Z,100221.41
2023-05-24T19:16:21.259Z,100227.13
2023-05-24T19:18:54.131Z,100226.41
2023-05-24T19:21:24.303Z,100231.72
2023-05-24T19:23:52.982Z,100233.06
2023-05-24T19:26:21.915Z,100244.44
2023-05-24T19:28:54.334Z,100239.84
2023-05-24T19:31:26.545Z,100235.84
2023-05-24T19:34:00.453Z,100247.47
2023-05-24T19:36:33.100Z,100241.00
2023-05-24T19:39:02.674Z,100241.09
2023-05-24T19:41:45.561Z,100243.66
2023-05-24T19:44:16.123Z,100248.84
2023-05-24T19:46:45.383Z,100253.91
2023-05-24T19:49:17.216Z,100262.41
2023-05-24T19:51:47.268Z,100253.28
2023-05-24T19:54:16.371Z,100254.00
2023-05-24T19:56:45.842Z,100254.44
2023-05-24T19:59:16.110Z,100249.66
2023-05-24T20:01:45.002Z,100256.13
2023-05-24T20:04:15.660Z,100248.94
2023-05-24T20:06:44.965Z,100256.47
2023-05-24T20:09:18.855Z,100255.31
2023-05-24T20:11:47.755Z,100255.72
2023-05-24T20:14:18.298Z,100258.44
2023-05-24T20:16:47.334Z,100256.84
2023-05-24T20:19:16.106Z,100262.25
2023-05-24T20:21:45.041Z,100257.44
2023-05-24T20:24:14.397Z,100256.81
2023-05-24T20:26:43.378Z,100260.06
2023-05-24T20:29:12.386Z,100254.03
2023-05-24T20:31:43.021Z,100254.25
2023-05-24T20:34:13.474Z,100260.41
2023-05-24T20:36:43.944Z,100264.81
2023-05-24T20:39:13.044Z,100264.34
2023-05-24T20:41:43.100Z,100270.69
2023-05-24T20:44:12.317Z,100269.09
2023-05-24T20:46:45.920Z,100272.13
2023-05-24T20:49:16.538Z,100268.53
2023-05-24T20:51:46.032Z,100272.72
2023-05-24T20:54:15.817Z,100271.94
2023-05-24T20:56:44.764Z,100282.91
2023-05-24T20:59:14.471Z,100285.94
2023-05-24T21:01:51.241Z,100275.53
2023-05-24T21:04:20.244Z,100282.44
2023-05-24T21:06:49.315Z,100279.72
2023-05-24T21:09:18.460Z,100281.22
2023-05-24T21:11:47.459Z,100287.66
2023-05-24T21:14:18.606Z,100288.31
2023-05-24T21:16:59.177Z,100289.44
2023-05-24T21:19:31.464Z,100295.31
2023-05-24T21:22:03.081Z,100296.47
2023-05-24T21:24:32.483Z,100299.19
2023-05-24T21:27:01.768Z,100300.50
2023-05-24T21:29:30.500Z,100295.31
2023-05-24T21:32:00.581Z,100304.84
2023-05-24T21:34:32.803Z,100301.75
2023-05-24T21:37:02.109Z,100306.47
2023-05-24T21:39:31.155Z,100305.72
2023-05-24T21:42:02.978Z,100305.66
2023-05-24T21:44:31.642Z,100311.13
2023-05-24T21:47:01.883Z,100310.00
2023-05-24T21:49:30.660Z,100307.34
2023-05-24T21:52:01.786Z,100308.38
2023-05-24T21:54:31.112Z,100310.47
2023-05-24T21:56:59.817Z,100308.69
2023-05-24T21:59:29.721Z,100303.19
2023-05-24T22:01:58.416Z,100306.22
2023-05-24T22:04:28.524Z,100299.22
2023-05-24T22:06:57.355Z,100299.47
2023-05-24T22:09:26.188Z,100297.53
2023-05-24T22:11:54.967Z,100300.34
2023-05-24T22:14:23.667Z,100298.25
2023-05-24T22:16:52.697Z,100299.13
2023-05-24T22:19:38.436Z,100305.22
2023-05-24T22:22:10.450Z,100296.91
2023-05-24T22:24:39.475Z,100305.69
2023-05-24T22:27:10.007Z,100298.44
2023-05-24T22:29:39.235Z,100307.28
2023-05-24T22:32:07.782Z,100314.25
2023-05-24T22:34:38.559Z,100305.97
2023-05-24T22:37:08.116Z,100312.88
2023-05-24T22:39:38.248Z,100319.44
2023-05-24T22:42:07.421Z,100310.34
2023-05-24T22:44:36.397Z,100314.69
2023-05-24T22:47:06.019Z,100317.41
2023-05-24T22:49:34.667Z,100311.19
2023-05-24T22:52:03.481Z,100314.06
2023-05-24T22:54:32.273Z,100312.47
2023-05-24T22:57:05.848Z,100316.72
2023-05-24T22:59:36.162Z,100317.38
2023-05-24T23:02:05.041Z,100318.97
2023-05-24T23:04:37.996Z,100312.47
2023-05-24T23:07:07.325Z,100316.53
2023-05-24T23:09:47.418Z,100317.06
2023-05-24T23:12:21.211Z,100321.75
2023-05-24T23:14:50.029Z,100318.00
2023-05-24T23:17:22.500Z,100307.53
2023-05-24T23:20:01.256Z,100316.47
2023-05-24T23:22:29.994Z,100318.34
2023-05-24T23:24:59.157Z,100320.75
2023-05-24T23:27:29.861Z,100319.38
2023-05-24T23:30:00.741Z,100322.03
2023-05-24T23:32:29.750Z,100322.91
2023-05-24T23:34:59.147Z,100329.66
2023-05-24T23:37:28.108Z,100320.34
2023-05-24T23:40:02.436Z,100329.88
2023-05-24T23:42:35.233Z,100324.50
2023-05-24T23:45:04.857Z,100329.66
2023-05-24T23:47:37.043Z,100332.22
2023-05-24T23:50:06.368Z,100330.63
2023-05-24T23:52:36.353Z,100329.94
2023-05-24T23:55:08.730Z,100330.75
2023-05-24T23:57:42.171Z,100340.38
